sensor_id;sensor_type;location;lat;lon;timestamp;pressure;altitude;pressure_sealevel;temperature;humidity
30935;BME280;51033;42.648;23.292;2023-09-19T00:01:07;94227.56;;;18.58;47.95
30935;BME280;51033;42.648;23.292;2023-09-19T00:03:37;94254.13;;;18.75;48.54
30935;BME280;51033;42.648;23.292;2023-09-19T00:06:07;94223.59;;;18.52;48.37
30935;BME280;51033;42.648;23.292;2023-09-19T00:08:33;94249.28;;;18.65;48.02
30935;BME280;51033;42.648;23.292;2023-09-19T00:10:58;94239.50;;;18.57;48.14
30935;BME280;51033;42.648;23.292;2023-09-19T00:13:31;94263.59;;;18.69;48.07
30935;BME280;51033;42.648;23.292;2023-09-19T00:15:57;94246.84;;;18.60;48.25
30935;BME280;51033;42.648;23.292;2023-09-19T00:18:24;94260.84;;;18.66;48.12
30935;BME280;51033;42.648;23.292;2023-09-19T00:21:00;94236.13;;;18.44;48.41
30935;BME280;51033;42.648;23.292;2023-09-19T00:23:26;94249.81;;;18.55;48.39
30935;BME280;51033;42.648;23.292;2023-09-19T00:25:52;94213.28;;;18.38;48.37
30935;BME280;51033;42.648;23.292;2023-09-19T00:28:18;94244.44;;;18.55;48.41
30935;BME280;51033;42.648;23.292;2023-09-19T00:30:45;94242.09;;;18.54;48.53
30935;BME280;51033;42.648;23.292;2023-09-19T00:33:19;94248.13;;;18.47;48.72
30935;BME280;51033;42.648;23.292;2023-09-19T00:35:51;94234.84;;;18.38;48.80
30935;BME280;51033;42.648;23.292;2023-09-19T00:38:18;94236.41;;;18.39;48.92
30935;BME280;51033;42.648;23.292;2023-09-19T00:40:47;94221.56;;;18.30;48.90
30935;BME280;51033;42.648;23.292;2023-09-19T00:43:13;94227.81;;;18.34;48.88
30935;BME280;51033;42.648;23.292;2023-09-19T00:45:39;94234.06;;;18.38;48.69
30935;BME280;51033;42.648;23.292;2023-09-19T00:48:08;94216.59;;;18.13;48.89
30935;BME280;51033;42.648;23.292;2023-09-19T00:50:34;94238.09;;;18.28;48.80
30935;BME280;51033;42.648;23.292;2023-09-19T00:53:00;94232.53;;;18.21;48.98
30935;BME280;51033;42.648;23.292;2023-09-19T00:55:26;94224.41;;;18.18;49.00
30935;BME280;51033;42.648;23.292;2023-09-19T00:57:55;94235.31;;;18.25;49.03
30935;BME280;51033;42.648;23.292;2023-09-19T01:00:21;94219.97;;;18.10;48.88
30935;BME280;51033;42.648;23.292;2023-09-19T01:02:48;94217.97;;;18.07;49.00
30935;BME280;51033;42.648;23.292;2023-09-19T01:05:14;94220.66;;;18.07;49.20
30935;BME280;51033;42.648;23.292;2023-09-19T01:07:39;94211.47;;;17.92;49.30
30935;BME280;51033;42.648;23.292;2023-09-19T01:10:12;94232.16;;;18.03;49.46
30935;BME280;51033;42.648;23.292;2023-09-19T01:15:28;94235.19;;;18.02;49.44
30935;BME280;51033;42.648;23.292;2023-09-19T01:23:21;94229.84;;;17.90;49.63
30935;BME280;51033;42.648;23.292;2023-09-19T01:26:10;94246.56;;;17.95;49.60
30935;BME280;51033;42.648;23.292;2023-09-19T01:29:16;94237.06;;;17.86;49.68
30935;BME280;51033;42.648;23.292;2023-09-19T01:31:51;94238.97;;;17.85;49.86
30935;BME280;51033;42.648;23.292;2023-09-19T01:34:19;94228.84;;;17.79;49.79
30935;BME280;51033;42.648;23.292;2023-09-19T01:36:45;94244.19;;;17.78;50.05
30935;BME280;51033;42.648;23.292;2023-09-19T01:39:12;94207.59;;;17.58;50.02
30935;BME280;51033;42.648;23.292;2023-09-19T01:41:47;94230.16;;;17.69;50.00
30935;BME280;51033;42.648;23.292;2023-09-19T01:44:25;94212.25;;;17.61;50.26
30935;BME280;51033;42.648;23.292;2023-09-19T01:46:57;94212.09;;;17.54;50.23
30935;BME280;51033;42.648;23.292;2023-09-19T01:49:35;94239.75;;;17.70;50.20
30935;BME280;51033;42.648;23.292;2023-09-19T01:52:12;94210.97;;;17.55;50.41
30935;BME280;51033;42.648;23.292;2023-09-19T01:54:57;94242.38;;;17.67;50.20
30935;BME280;51033;42.648;23.292;2023-09-19T01:57:28;94238.91;;;17.66;50.20
30935;BME280;51033;42.648;23.292;2023-09-19T02:00:15;94229.81;;;17.55;50.36
30935;BME280;51033;42.648;23.292;2023-09-19T02:02:47;94244.38;;;17.54;50.37
30935;BME280;51033;42.648;23.292;2023-09-19T02:05:13;94239.78;;;17.54;50.55
30935;BME280;51033;42.648;23.292;2023-09-19T02:07:46;94224.94;;;17.45;50.36
30935;BME280;51033;42.648;23.292;2023-09-19T02:10:12;94218.66;;;17.41;50.26
30935;BME280;51033;42.648;23.292;2023-09-19T02:12:37;94221.34;;;17.41;50.35
30935;BME280;51033;42.648;23.292;2023-09-19T02:15:03;94219.28;;;17.34;50.62
30935;BME280;51033;42.648;23.292;2023-09-19T02:17:32;94226.66;;;17.37;50.88
30935;BME280;51033;42.648;23.292;2023-09-19T02:19:57;94239.31;;;17.37;50.87
30935;BME280;51033;42.648;23.292;2023-09-19T02:22:24;94238.72;;;17.43;50.55
30935;BME280;51033;42.648;23.292;2023-09-19T02:24:50;94235.69;;;17.45;50.84
30935;BME280;51033;42.648;23.292;2023-09-19T02:27:16;94235.50;;;17.38;50.94
30935;BME280;51033;42.648;23.292;2023-09-19T02:29:43;94229.53;;;17.44;50.98
30935;BME280;51033;42.648;23.292;2023-09-19T02:32:08;94209.56;;;17.30;50.68
30935;BME280;51033;42.648;23.292;2023-09-19T02:34:37;94220.16;;;17.38;50.81
30935;BME280;51033;42.648;23.292;2023-09-19T02:37:04;94200.63;;;17.26;50.93
30935;BME280;51033;42.648;23.292;2023-09-19T02:39:33;94209.56;;;17.30;51.08
30935;BME280;51033;42.648;23.292;2023-09-19T02:42:00;94202.38;;;17.34;51.06
30935;BME280;51033;42.648;23.292;2023-09-19T02:44:25;94210.09;;;17.35;51.06
30935;BME280;51033;42.648;23.292;2023-09-19T02:46:51;94194.38;;;17.22;51.22
30935;BME280;51033;42.648;23.292;2023-09-19T02:49:16;94191.69;;;17.22;51.29
30935;BME280;51033;42.648;23.292;2023-09-19T02:51:43;94203.81;;;17.31;51.36
30935;BME280;51033;42.648;23.292;2023-09-19T02:54:09;94196.38;;;17.25;51.29
30935;BME280;51033;42.648;23.292;2023-09-19T02:56:35;94204.09;;;17.26;51.20
30935;BME280;51033;42.648;23.292;2023-09-19T02:59:01;94183.34;;;17.11;51.35
30935;BME280;51033;42.648;23.292;2023-09-19T03:01:27;94195.16;;;17.22;51.24
30935;BME280;51033;42.648;23.292;2023-09-19T03:03:53;94187.47;;;17.21;51.29
30935;BME280;51033;42.648;23.292;2023-09-19T03:06:19;94204.88;;;17.27;51.09
30935;BME280;51033;42.648;23.292;2023-09-19T03:08:45;94168.59;;;17.05;51.52
30935;BME280;51033;42.648;23.292;2023-09-19T03:11:12;94192.72;;;17.17;51.39
30935;BME280;51033;42.648;23.292;2023-09-19T03:13:40;94180.19;;;17.09;51.69
30935;BME280;51033;42.648;23.292;2023-09-19T03:16:07;94169.72;;;17.04;51.50
30935;BME280;51033;42.648;23.292;2023-09-19T03:18:35;94176.28;;;17.06;51.44
30935;BME280;51033;42.648;23.292;2023-09-19T03:21:01;94178.97;;;17.06;51.33
30935;BME280;51033;42.648;23.292;2023-09-19T03:23:27;94178.97;;;17.06;51.36
30935;BME280;51033;42.648;23.292;2023-09-19T03:25:54;94174.75;;;17.05;51.45
30935;BME280;51033;42.648;23.292;2023-09-19T03:28:20;94179.41;;;17.08;51.74
30935;BME280;51033;42.648;23.292;2023-09-19T03:31:00;94188.03;;;17.14;51.68
30935;BME280;51033;42.648;23.292;2023-09-19T03:33:26;94151.75;;;16.92;51.44
30935;BME280;51033;42.648;23.292;2023-09-19T03:35:54;94191.50;;;17.14;51.52
30935;BME280;51033;42.648;23.292;2023-09-19T03:38:20;94198.00;;;17.13;51.45
30935;BME280;51033;42.648;23.292;2023-09-19T03:40:47;94188.84;;;17.02;51.51
30935;BME280;51033;42.648;23.292;2023-09-19T03:43:13;94186.00;;;16.95;51.34
30935;BME280;51033;42.648;23.292;2023-09-19T03:45:38;94197.94;;;16.98;51.52
30935;BME280;51033;42.648;23.292;2023-09-19T03:48:12;94184.66;;;16.89;51.26
30935;BME280;51033;42.648;23.292;2023-09-19T03:50:38;94207.31;;;17.04;51.41
30935;BME280;51033;42.648;23.292;2023-09-19T03:53:04;94199.19;;;17.00;51.39
30935;BME280;51033;42.648;23.292;2023-09-19T03:55:29;94182.94;;;16.81;51.68
30935;BME280;51033;42.648;23.292;2023-09-19T03:57:55;94193.75;;;16.85;51.72
30935;BME280;51033;42.648;23.292;2023-09-19T04:00:21;94175.69;;;16.69;51.71
30935;BME280;51033;42.648;23.292;2023-09-19T04:02:49;94198.03;;;16.86;51.72
30935;BME280;51033;42.648;23.292;2023-09-19T04:05:16;94207.97;;;16.85;52.02
30935;BME280;51033;42.648;23.292;2023-09-19T04:07:41;94213.66;;;16.96;52.00
30935;BME280;51033;42.648;23.292;2023-09-19T04:10:07;94215.88;;;16.94;52.23
30935;BME280;51033;42.648;23.292;2023-09-19T04:12:34;94187.22;;;16.70;52.33
30935;BME280;51033;42.648;23.292;2023-09-19T04:14:59;94233.91;;;16.93;52.14
30935;BME280;51033;42.648;23.292;2023-09-19T04:17:25;94233.47;;;16.91;52.35
30935;BME280;51033;42.648;23.292;2023-09-19T04:19:51;94189.03;;;16.66;52.15
30935;BME280;51033;42.648;23.292;2023-09-19T04:22:16;94224.09;;;16.85;52.27
30935;BME280;51033;42.648;23.292;2023-09-19T04:24:41;94226.09;;;16.88;52.68
30935;BME280;51033;42.648;23.292;2023-09-19T04:27:07;94203.78;;;16.72;52.85
30935;BME280;51033;42.648;23.292;2023-09-19T04:29:32;94218.03;;;16.88;53.14
30935;BME280;51033;42.648;23.292;2023-09-19T04:31:58;94192.44;;;16.79;53.13
30935;BME280;51033;42.648;23.292;2023-09-19T04:34:23;94193.31;;;16.83;53.14
30935;BME280;51033;42.648;23.292;2023-09-19T04:36:49;94215.63;;;16.99;53.16
30935;BME280;51033;42.648;23.292;2023-09-19T04:39:15;94210.25;;;16.99;53.13
30935;BME280;51033;42.648;23.292;2023-09-19T04:41:40;94199.75;;;16.94;53.50
30935;BME280;51033;42.648;23.292;2023-09-19T04:44:06;94209.06;;;16.96;53.92
30935;BME280;51033;42.648;23.292;2023-09-19T04:46:33;94170.16;;;16.78;54.10
30935;BME280;51033;42.648;23.292;2023-09-19T04:48:58;94209.31;;;17.07;54.34
30935;BME280;51033;42.648;23.292;2023-09-19T04:51:24;94175.03;;;16.88;54.20
30935;BME280;51033;42.648;23.292;2023-09-19T04:53:50;94184.50;;;16.98;54.10
30935;BME280;51033;42.648;23.292;2023-09-19T04:56:16;94198.69;;;17.10;53.94
30935;BME280;51033;42.648;23.292;2023-09-19T04:58:41;94194.97;;;17.15;54.50
30935;BME280;51033;42.648;23.292;2023-09-19T05:01:07;94195.94;;;17.23;54.47
30935;BME280;51033;42.648;23.292;2023-09-19T05:03:36;94202.78;;;17.36;53.87
30935;BME280;51033;42.648;23.292;2023-09-19T05:06:02;94192.47;;;17.38;53.81
30935;BME280;51033;42.648;23.292;2023-09-19T05:08:30;94183.97;;;17.36;53.72
30935;BME280;51033;42.648;23.292;2023-09-19T05:10:56;94193.88;;;17.47;53.55
30935;BME280;51033;42.648;23.292;2023-09-19T05:13:21;94197.53;;;17.55;53.58
30935;BME280;51033;42.648;23.292;2023-09-19T05:15:48;94206.81;;;17.73;52.26
30935;BME280;51033;42.648;23.292;2023-09-19T05:18:15;94206.53;;;17.78;51.87
30935;BME280;51033;42.648;23.292;2023-09-19T05:20:40;94204.97;;;17.77;51.72
30935;BME280;51033;42.648;23.292;2023-09-19T05:23:07;94181.72;;;17.69;51.50
30935;BME280;51033;42.648;23.292;2023-09-19T05:25:36;94196.91;;;17.77;52.10
30935;BME280;51033;42.648;23.292;2023-09-19T05:28:09;94187.34;;;17.80;52.17
30935;BME280;51033;42.648;23.292;2023-09-19T05:30:36;94173.41;;;17.74;52.85
30935;BME280;51033;42.648;23.292;2023-09-19T05:33:04;94179.09;;;17.88;52.20
30935;BME280;51033;42.648;23.292;2023-09-19T05:35:30;94176.41;;;17.88;52.29
30935;BME280;51033;42.648;23.292;2023-09-19T05:37:57;94188.47;;;17.94;52.02
30935;BME280;51033;42.648;23.292;2023-09-19T05:40:24;94181.34;;;17.86;52.29
30935;BME280;51033;42.648;23.292;2023-09-19T05:42:49;94174.56;;;17.92;52.08
30935;BME280;51033;42.648;23.292;2023-09-19T05:45:16;94163.91;;;17.96;52.15
30935;BME280;51033;42.648;23.292;2023-09-19T05:47:47;94176.75;;;18.02;52.23
30935;BME280;51033;42.648;23.292;2023-09-19T05:50:14;94181.88;;;18.08;52.13
30935;BME280;51033;42.648;23.292;2023-09-19T05:52:41;94181.00;;;18.03;51.24
30935;BME280;51033;42.648;23.292;2023-09-19T05:55:08;94188.09;;;18.12;50.60
30935;BME280;51033;42.648;23.292;2023-09-19T05:57:37;94164.69;;;17.96;51.19
30935;BME280;51033;42.648;23.292;2023-09-19T06:00:08;94148.03;;;17.75;50.96
30935;BME280;51033;42.648;23.292;2023-09-19T06:02:38;94180.84;;;17.96;51.53
30935;BME280;51033;42.648;23.292;2023-09-19T06:05:05;94181.63;;;17.97;51.75
30935;BME280;51033;42.648;23.292;2023-09-19T06:07:32;94178.66;;;18.02;51.82
30935;BME280;51033;42.648;23.292;2023-09-19T06:10:05;94176.13;;;18.09;51.39
30935;BME280;51033;42.648;23.292;2023-09-19T06:12:32;94170.38;;;18.11;50.86
30935;BME280;51033;42.648;23.292;2023-09-19T06:15:03;94171.25;;;18.15;51.20
30935;BME280;51033;42.648;23.292;2023-09-19T06:17:30;94175.94;;;18.18;50.70
30935;BME280;51033;42.648;23.292;2023-09-19T06:19:56;94167.69;;;18.11;51.08
30935;BME280;51033;42.648;23.292;2023-09-19T06:22:22;94157.00;;;18.14;51.28
30935;BME280;51033;42.648;23.292;2023-09-19T06:24:49;94152.78;;;18.13;52.33
30935;BME280;51033;42.648;23.292;2023-09-19T06:27:15;94164.75;;;18.35;52.17
30935;BME280;51033;42.648;23.292;2023-09-19T06:29:40;94160.94;;;18.36;52.12
30935;BME280;51033;42.648;23.292;2023-09-19T06:32:09;94142.72;;;18.29;51.88
30935;BME280;51033;42.648;23.292;2023-09-19T06:34:35;94170.97;;;18.39;52.29
30935;BME280;51033;42.648;23.292;2023-09-19T06:37:00;94151.56;;;18.49;51.15
30935;BME280;51033;42.648;23.292;2023-09-19T06:39:26;94163.06;;;18.65;50.90
30935;BME280;51033;42.648;23.292;2023-09-19T06:41:52;94154.97;;;18.65;50.71
30935;BME280;51033;42.648;23.292;2023-09-19T06:44:20;94161.94;;;18.66;49.63
30935;BME280;51033;42.648;23.292;2023-09-19T06:46:50;94177.06;;;18.71;49.82
30935;BME280;51033;42.648;23.292;2023-09-19T06:49:17;94155.13;;;18.53;50.03
30935;BME280;51033;42.648;23.292;2023-09-19T06:51:42;94165.97;;;18.57;49.65
30935;BME280;51033;42.648;23.292;2023-09-19T06:54:09;94180.53;;;18.71;50.77
30935;BME280;51033;42.648;23.292;2023-09-19T06:56:34;94161.50;;;18.64;50.88
30935;BME280;51033;42.648;23.292;2023-09-19T06:59:00;94182.94;;;18.76;49.85
30935;BME280;51033;42.648;23.292;2023-09-19T07:01:25;94170.03;;;18.66;50.04
30935;BME280;51033;42.648;23.292;2023-09-19T07:03:51;94167.06;;;18.71;49.56
30935;BME280;51033;42.648;23.292;2023-09-19T07:06:18;94177.63;;;18.80;50.10
30935;BME280;51033;42.648;23.292;2023-09-19T07:08:43;94184.75;;;18.53;51.72
30935;BME280;51033;42.648;23.292;2023-09-19T07:11:10;94154.41;;;18.56;50.59
30935;BME280;51033;42.648;23.292;2023-09-19T07:13:37;94174.03;;;18.72;51.06
30935;BME280;51033;42.648;23.292;2023-09-19T07:16:03;94164.44;;;18.75;51.51
30935;BME280;51033;42.648;23.292;2023-09-19T07:18:29;94154.72;;;18.70;50.98
30935;BME280;51033;42.648;23.292;2023-09-19T07:20:57;94160.09;;;18.89;50.70
30935;BME280;51033;42.648;23.292;2023-09-19T07:23:26;94184.63;;;19.04;50.46
30935;BME280;51033;42.648;23.292;2023-09-19T07:25:52;94177.22;;;19.20;49.71
30935;BME280;51033;42.648;23.292;2023-09-19T07:28:21;94178.63;;;19.14;49.56
30935;BME280;51033;42.648;23.292;2023-09-19T07:30:48;94153.19;;;19.11;49.82
30935;BME280;51033;42.648;23.292;2023-09-19T07:33:13;94186.72;;;19.37;49.46
30935;BME280;51033;42.648;23.292;2023-09-19T07:35:39;94173.53;;;19.31;49.29
30935;BME280;51033;42.648;23.292;2023-09-19T07:38:07;94179.91;;;19.43;49.10
30935;BME280;51033;42.648;23.292;2023-09-19T07:40:33;94182.38;;;19.51;49.55
30935;BME280;51033;42.648;23.292;2023-09-19T07:42:58;94179.38;;;19.56;49.00
30935;BME280;51033;42.648;23.292;2023-09-19T07:45:36;94177.00;;;19.51;48.82
30935;BME280;51033;42.648;23.292;2023-09-19T07:48:01;94175.56;;;19.57;49.16
30935;BME280;51033;42.648;23.292;2023-09-19T07:50:33;94191.97;;;19.71;49.28
30935;BME280;51033;42.648;23.292;2023-09-19T07:53:02;94169.44;;;19.60;47.80
30935;BME280;51033;42.648;23.292;2023-09-19T07:55:30;94186.56;;;19.71;48.58
30935;BME280;51033;42.648;23.292;2023-09-19T07:57:55;94182.63;;;19.65;48.51
30935;BME280;51033;42.648;23.292;2023-09-19T08:00:21;94189.75;;;19.77;49.06
30935;BME280;51033;42.648;23.292;2023-09-19T08:02:47;94192.88;;;19.79;49.38
30935;BME280;51033;42.648;23.292;2023-09-19T08:05:17;94189.69;;;19.73;47.77
30935;BME280;51033;42.648;23.292;2023-09-19T08:07:45;94180.41;;;19.71;48.36
30935;BME280;51033;42.648;23.292;2023-09-19T08:10:14;94164.16;;;19.67;48.61
30935;BME280;51033;42.648;23.292;2023-09-19T08:12:41;94159.19;;;19.69;48.60
30935;BME280;51033;42.648;23.292;2023-09-19T08:15:17;94173.59;;;19.81;48.68
30935;BME280;51033;42.648;23.292;2023-09-19T08:17:46;94155.97;;;19.87;49.20
30935;BME280;51033;42.648;23.292;2023-09-19T08:20:13;94145.16;;;19.87;47.60
30935;BME280;51033;42.648;23.292;2023-09-19T08:22:53;94150.63;;;19.90;47.86
30935;BME280;51033;42.648;23.292;2023-09-19T08:25:22;94142.91;;;19.89;48.32
30935;BME280;51033;42.648;23.292;2023-09-19T08:27:48;94149.16;;;19.96;48.69
30935;BME280;51033;42.648;23.292;2023-09-19T08:30:18;94140.78;;;20.05;48.19
30935;BME280;51033;42.648;23.292;2023-09-19T08:32:45;94165.31;;;20.19;48.16
30935;BME280;51033;42.648;23.292;2023-09-19T08:35:11;94161.91;;;20.22;49.20
30935;BME280;51033;42.648;23.292;2023-09-19T08:37:37;94147.06;;;20.09;47.86
30935;BME280;51033;42.648;23.292;2023-09-19T08:40:02;94173.34;;;20.15;48.53
30935;BME280;51033;42.648;23.292;2023-09-19T08:42:28;94170.19;;;20.10;48.63
30935;BME280;51033;42.648;23.292;2023-09-19T08:44:55;94170.81;;;20.00;49.22
30935;BME280;51033;42.648;23.292;2023-09-19T08:47:33;94155.53;;;20.11;48.63
30935;BME280;51033;42.648;23.292;2023-09-19T08:50:11;94161.28;;;20.32;48.63
30935;BME280;51033;42.648;23.292;2023-09-19T08:52:43;94132.69;;;20.31;47.98
30935;BME280;51033;42.648;23.292;2023-09-19T08:55:13;94152.94;;;20.44;48.48
30935;BME280;51033;42.648;23.292;2023-09-19T08:57:46;94137.66;;;20.26;48.24
30935;BME280;51033;42.648;23.292;2023-09-19T09:00:15;94142.72;;;20.31;48.21
30935;BME280;51033;42.648;23.292;2023-09-19T09:02:43;94136.16;;;20.28;47.45
30935;BME280;51033;42.648;23.292;2023-09-19T09:05:09;94146.97;;;20.62;47.28
30935;BME280;51033;42.648;23.292;2023-09-19T09:07:40;94138.88;;;20.62;46.80
30935;BME280;51033;42.648;23.292;2023-09-19T09:10:06;94102.56;;;20.29;47.73
30935;BME280;51033;42.648;23.292;2023-09-19T09:12:32;94140.31;;;20.52;47.52
30935;BME280;51033;42.648;23.292;2023-09-19T09:15:00;94144.66;;;20.64;47.26
30935;BME280;51033;42.648;23.292;2023-09-19T09:17:26;94115.91;;;20.48;47.13
30935;BME280;51033;42.648;23.292;2023-09-19T09:19:54;94140.16;;;20.75;47.65
30935;BME280;51033;42.648;23.292;2023-09-19T09:22:20;94138.38;;;20.86;46.91
30935;BME280;51033;42.648;23.292;2023-09-19T09:27:19;94122.16;;;20.86;46.27
30935;BME280;51033;42.648;23.292;2023-09-19T09:32:28;94124.22;;;20.96;47.20
30935;BME280;51033;42.648;23.292;2023-09-19T09:34:59;94121.56;;;21.03;48.13
30935;BME280;51033;42.648;23.292;2023-09-19T09:37:25;94123.22;;;21.11;47.17
30935;BME280;51033;42.648;23.292;2023-09-19T09:39:55;94117.38;;;21.09;46.93
30935;BME280;51033;42.648;23.292;2023-09-19T09:42:35;94082.53;;;20.97;47.02
30935;BME280;51033;42.648;23.292;2023-09-19T09:45:17;94114.50;;;21.32;46.63
30935;BME280;51033;42.648;23.292;2023-09-19T09:47:47;94089.66;;;21.19;46.83
30935;BME280;51033;42.648;23.292;2023-09-19T09:50:47;94104.44;;;21.29;47.01
30935;BME280;51033;42.648;23.292;2023-09-19T09:53:29;94094.28;;;21.19;46.95
30935;BME280;51033;42.648;23.292;2023-09-19T09:56:08;94095.84;;;21.20;45.98
30935;BME280;51033;42.648;23.292;2023-09-19T10:01:13;94067.44;;;20.96;46.37
30935;BME280;51033;42.648;23.292;2023-09-19T10:03:42;94097.44;;;21.24;46.55
30935;BME280;51033;42.648;23.292;2023-09-19T10:06:16;94079.72;;;21.30;46.68
30935;BME280;51033;42.648;23.292;2023-09-19T10:09:01;94092.69;;;21.55;46.69
30935;BME280;51033;42.648;23.292;2023-09-19T10:11:30;94105.53;;;21.65;46.21
30935;BME280;51033;42.648;23.292;2023-09-19T10:13:57;94081.88;;;21.58;45.60
30935;BME280;51033;42.648;23.292;2023-09-19T10:16:29;94088.16;;;21.69;45.72
30935;BME280;51033;42.648;23.292;2023-09-19T10:18:58;94074.56;;;21.62;45.61
30935;BME280;51033;42.648;23.292;2023-09-19T10:21:28;94090.94;;;21.83;45.66
30935;BME280;51033;42.648;23.292;2023-09-19T10:23:58;94076.56;;;21.76;45.33
30935;BME280;51033;42.648;23.292;2023-09-19T10:26:26;94083.97;;;21.79;45.43
30935;BME280;51033;42.648;23.292;2023-09-19T10:28:56;94082.41;;;21.78;45.15
30935;BME280;51033;42.648;23.292;2023-09-19T10:31:23;94091.81;;;21.95;45.06
30935;BME280;51033;42.648;23.292;2023-09-19T10:33:51;94085.63;;;22.01;45.67
30935;BME280;51033;42.648;23.292;2023-09-19T10:36:19;94054.56;;;21.81;44.92
30935;BME280;51033;42.648;23.292;2023-09-19T10:38:45;94081.81;;;22.09;44.54
30935;BME280;51033;42.648;23.292;2023-09-19T10:41:16;94072.50;;;22.03;44.57
30935;BME280;51033;42.648;23.292;2023-09-19T10:43:45;94077.94;;;22.10;44.66
30935;BME280;51033;42.648;23.292;2023-09-19T10:46:11;94069.44;;;22.08;44.31
30935;BME280;51033;42.648;23.292;2023-09-19T10:48:38;94080.28;;;22.15;44.61
30935;BME280;51033;42.648;23.292;2023-09-19T10:56:26;94042.34;;;22.08;45.34
30935;BME280;51033;42.648;23.292;2023-09-19T10:59:12;94064.81;;;22.19;44.82
30935;BME280;51033;42.648;23.292;2023-09-19T11:04:28;94067.28;;;22.39;44.70
30935;BME280;51033;42.648;23.292;2023-09-19T11:07:14;94055.63;;;22.35;44.58
30935;BME280;51033;42.648;23.292;2023-09-19T11:09:54;94061.84;;;22.39;44.27
30935;BME280;51033;42.648;23.292;2023-09-19T11:14:58;94057.19;;;22.32;44.75
30935;BME280;51033;42.648;23.292;2023-09-19T11:17:30;94057.22;;;22.43;44.56
30935;BME280;51033;42.648;23.292;2023-09-19T11:30:37;94058.03;;;22.61;44.52
30935;BME280;51033;42.648;23.292;2023-09-19T11:33:23;94044.13;;;22.62;44.71
30935;BME280;51033;42.648;23.292;2023-09-19T11:36:16;94037.88;;;22.48;44.48
30935;BME280;51033;42.648;23.292;2023-09-19T11:46:29;94004.22;;;22.66;43.86
30935;BME280;51033;42.648;23.292;2023-09-19T11:49:05;94010.44;;;22.74;44.26
30935;BME280;51033;42.648;23.292;2023-09-19T11:51:40;93997.66;;;22.71;44.01
30935;BME280;51033;42.648;23.292;2023-09-19T11:54:11;94006.16;;;22.69;43.85
30935;BME280;51033;42.648;23.292;2023-09-19T11:56:54;94006.19;;;22.80;42.85
30935;BME280;51033;42.648;23.292;2023-09-19T11:59:21;94017.44;;;22.82;43.56
30935;BME280;51033;42.648;23.292;2023-09-19T12:01:52;94015.50;;;22.83;43.70
30935;BME280;51033;42.648;23.292;2023-09-19T12:04:43;94012.78;;;22.83;43.66
30935;BME280;51033;42.648;23.292;2023-09-19T12:07:12;93996.09;;;22.70;43.95
30935;BME280;51033;42.648;23.292;2023-09-19T12:09:48;93984.09;;;22.78;43.61
30935;BME280;51033;42.648;23.292;2023-09-19T12:12:23;93957.00;;;22.67;43.26
30935;BME280;51033;42.648;23.292;2023-09-19T12:14:49;93995.00;;;22.96;43.08
30935;BME280;51033;42.648;23.292;2023-09-19T12:17:15;93967.47;;;22.90;42.66
30935;BME280;51033;42.648;23.292;2023-09-19T12:19:55;93963.63;;;22.88;45.52
30935;BME280;51033;42.648;23.292;2023-09-19T12:22:21;93973.66;;;22.94;43.82
30935;BME280;51033;42.648;23.292;2023-09-19T12:24:47;93962.06;;;22.97;43.24
30935;BME280;51033;42.648;23.292;2023-09-19T12:27:13;93961.69;;;23.02;43.30
30935;BME280;51033;42.648;23.292;2023-09-19T12:29:46;93972.53;;;22.95;42.63
30935;BME280;51033;42.648;23.292;2023-09-19T12:32:13;93952.75;;;22.91;42.51
30935;BME280;51033;42.648;23.292;2023-09-19T12:34:41;93953.50;;;22.81;42.68
30935;BME280;51033;42.648;23.292;2023-09-19T12:37:16;93954.31;;;22.92;42.15
30935;BME280;51033;42.648;23.292;2023-09-19T12:39:49;93957.41;;;23.15;42.18
30935;BME280;51033;42.648;23.292;2023-09-19T12:42:23;93953.16;;;23.00;42.19
30935;BME280;51033;42.648;23.292;2023-09-19T12:44:51;93955.47;;;23.16;41.78
30935;BME280;51033;42.648;23.292;2023-09-19T12:47:22;93956.63;;;23.15;42.65
30935;BME280;51033;42.648;23.292;2023-09-19T12:52:51;93956.56;;;23.43;42.74
30935;BME280;51033;42.648;23.292;2023-09-19T12:55:22;93960.47;;;23.17;42.66
30935;BME280;51033;42.648;23.292;2023-09-19T13:00:32;93924.03;;;23.33;42.63
30935;BME280;51033;42.648;23.292;2023-09-19T13:03:18;93949.22;;;23.33;42.34
30935;BME280;51033;42.648;23.292;2023-09-19T13:05:56;93947.69;;;23.36;42.43
30935;BME280;51033;42.648;23.292;2023-09-19T13:08:25;93917.03;;;23.49;42.60
30935;BME280;51033;42.648;23.292;2023-09-19T13:11:17;93920.88;;;23.63;44.69
30935;BME280;51033;42.648;23.292;2023-09-19T13:13:48;93934.41;;;23.73;43.42
30935;BME280;51033;42.648;23.292;2023-09-19T13:16:19;93913.47;;;23.67;43.67
30935;BME280;51033;42.648;23.292;2023-09-19T13:18:49;93932.81;;;23.86;43.56
30935;BME280;51033;42.648;23.292;2023-09-19T13:21:30;93930.13;;;23.79;42.53
30935;BME280;51033;42.648;23.292;2023-09-19T13:24:24;93914.66;;;23.62;42.18
30935;BME280;51033;42.648;23.292;2023-09-19T13:26:53;93912.25;;;23.89;43.69
30935;BME280;51033;42.648;23.292;2023-09-19T13:29:19;93905.25;;;23.91;42.45
30935;BME280;51033;42.648;23.292;2023-09-19T13:31:48;93884.25;;;23.95;42.77
30935;BME280;51033;42.648;23.292;2023-09-19T13:34:13;93909.38;;;24.21;43.08
30935;BME280;51033;42.648;23.292;2023-09-19T13:36:41;93913.72;;;24.15;42.38
30935;BME280;51033;42.648;23.292;2023-09-19T13:39:07;93893.50;;;24.16;41.95
30935;BME280;51033;42.648;23.292;2023-09-19T13:41:34;93914.44;;;24.22;41.43
30935;BME280;51033;42.648;23.292;2023-09-19T13:44:02;93913.19;;;24.34;41.68
30935;BME280;51033;42.648;23.292;2023-09-19T13:46:27;93911.25;;;24.31;42.16
30935;BME280;51033;42.648;23.292;2023-09-19T13:48:53;93897.31;;;24.29;41.21
30935;BME280;51033;42.648;23.292;2023-09-19T13:51:21;93908.09;;;24.43;41.11